»·PEaware :: KENT10 KSPS-KSPS

KENT10 :: KSPS-KSPS

FLIGHT INFORMATION

Flight Status: Arrived
Operator: Unknown
More flights by this operator :: More flights under this callsign
Pilot: 80 FTW ENJJPT (22981)
Aircraft: Unknown
(T-38)
More flights by this aircraft type
Origin: KSPS Sheppard AFB/Wichita Falls Mu
United States
Destination: KSPS Sheppard AFB/Wichita Falls Mu
United States
More flights between these airports :: More routes between these airports
Route: +
File this flight plan on PilotEdge
Remarks:
Altitude:
(Current/Filed)
0ft
Speed:
(Current/Filed)
0kts
Departed: 04-Aug-20 07:32 AM
Arrived: 04-Aug-20 08:33 AM
Distance/Time
Traveled:
0nm/1:01
Distance/Time
To Go:
Arrived

Flight Plot

Page will automatically refresh every two minutes.

Flight plan parsing failed; only flown route is shown


Map Options




Map Legend


Flown Route
Filed Route
Departure Airport
Arrival Airport
Navaid (VOR, NDB)
Fix

Horizontal Profiles

Position Reports

Time Latitude Longitude Heading Altitude Ground
Speed
04-Aug-20 07:22 34.003323 -98.500550 70 1027ft 0kts
04-Aug-20 07:23 34.003323 -98.500550 70 1027ft 0kts
04-Aug-20 07:24 34.003323 -98.500549 70 1027ft 0kts
04-Aug-20 07:25 34.003324 -98.500548 70 1027ft 0kts
04-Aug-20 07:26 34.003324 -98.500547 70 1027ft 0kts
04-Aug-20 07:28 34.003324 -98.500546 70 1027ft 0kts
04-Aug-20 07:29 34.003325 -98.500545 70 1027ft 0kts
04-Aug-20 07:30 34.003325 -98.500544 70 1027ft 0kts
04-Aug-20 07:31 34.003419 -98.499307 158 1027ft 0kts
04-Aug-20 07:32 33.958434 -98.477767 158 1386ft 265kts
04-Aug-20 07:33 33.884260 -98.442729 159 3556ft 305kts
04-Aug-20 07:34 33.832867 -98.496757 293 4760ft 320kts
04-Aug-20 07:35 33.885056 -98.585261 308 5004ft 330kts
04-Aug-20 07:36 33.943223 -98.665628 332 5041ft 306kts
04-Aug-20 07:37 34.024768 -98.706155 336 4990ft 319kts
04-Aug-20 07:38 34.105409 -98.749517 335 3194ft 313kts
04-Aug-20 07:39 34.163652 -98.725358 88 3082ft 309kts
04-Aug-20 07:40 34.170192 -98.622626 84 2640ft 283kts
04-Aug-20 07:41 34.140528 -98.553273 169 2452ft 290kts
04-Aug-20 07:42 34.070465 -98.531085 159 2213ft 213kts
04-Aug-20 07:42 34.029601 -98.508329 154 1582ft 189kts
04-Aug-20 07:44 33.967032 -98.476291 153 1821ft 273kts
04-Aug-20 07:45 33.887860 -98.445881 205 5328ft 306kts
04-Aug-20 07:46 33.862197 -98.545752 265 7765ft 333kts
04-Aug-20 07:47 33.854787 -98.661459 264 11086ft 371kts
04-Aug-20 07:47 33.844449 -98.774594 262 14244ft 419kts
04-Aug-20 07:48 33.829174 -98.917256 263 16194ft 429kts
04-Aug-20 07:49 33.846996 -99.060143 296 19416ft 463kts
04-Aug-20 07:50 33.903326 -99.196485 299 20713ft 459kts
04-Aug-20 07:52 33.968376 -99.235000 92 15467ft 525kts
04-Aug-20 07:52 33.950539 -99.245799 284 11695ft 519kts
04-Aug-20 07:53 33.953705 -99.273679 100 12071ft 397kts
04-Aug-20 07:54 33.929145 -99.100452 99 12426ft 556kts
04-Aug-20 07:55 33.879875 -99.132001 260 18298ft 328kts
04-Aug-20 07:56 33.868006 -99.225243 261 19085ft 247kts
04-Aug-20 07:57 33.910805 -99.269463 348 17293ft 236kts
04-Aug-20 07:58 33.969500 -99.281951 352 17571ft 228kts
04-Aug-20 07:59 33.990285 -99.229530 151 17830ft 258kts
04-Aug-20 08:00 33.936505 -99.272514 262 15784ft 305kts
04-Aug-20 08:01 33.876433 -99.280040 104 12942ft 335kts
04-Aug-20 08:02 33.849688 -99.167696 111 12035ft 356kts
04-Aug-20 08:03 33.818487 -99.054381 99 12048ft 360kts
04-Aug-20 08:04 33.850405 -98.943052 56 11482ft 370kts
04-Aug-20 08:05 33.918952 -98.860937 40 8092ft 352kts
04-Aug-20 08:06 33.992425 -98.787326 39 6241ft 343kts
04-Aug-20 08:07 34.062691 -98.718557 40 3724ft 323kts
04-Aug-20 08:08 34.123517 -98.645206 57 2639ft 307kts
04-Aug-20 08:09 34.140962 -98.562347 162 2743ft 283kts
04-Aug-20 08:10 34.076930 -98.534368 159 2317ft 177kts
04-Aug-20 08:11 34.031245 -98.512633 158 1527ft 170kts
04-Aug-20 08:12 33.986727 -98.491263 158 1119ft 199kts
04-Aug-20 08:13 33.975704 -98.514429 330 2848ft 273kts
04-Aug-20 08:14 34.024166 -98.520644 97 1835ft 186kts
04-Aug-20 08:15 33.982133 -98.488878 157 1193ft 259kts
04-Aug-20 08:16 33.997446 -98.525187 327 2999ft 267kts
04-Aug-20 08:17 34.038417 -98.522079 130 1736ft 214kts
04-Aug-20 08:18 33.988600 -98.492131 158 1078ft 230kts
04-Aug-20 08:19 33.994224 -98.525236 329 2933ft 218kts
04-Aug-20 08:20 34.021139 -98.508768 148 1376ft 202kts
04-Aug-20 08:21 33.964540 -98.480449 157 1608ft 312kts
04-Aug-20 08:22 33.967521 -98.511246 344 2898ft 270kts
04-Aug-20 08:23 34.022844 -98.538478 334 3275ft 221kts
04-Aug-20 08:24 34.016137 -98.614609 242 4025ft 307kts
04-Aug-20 08:25 33.969258 -98.705820 195 3792ft 310kts
04-Aug-20 08:26 33.946073 -98.627410 91 3518ft 316kts
04-Aug-20 08:27 33.997123 -98.555642 356 3013ft 311kts
04-Aug-20 08:28 34.063035 -98.546265 126 2873ft 326kts
04-Aug-20 08:29 33.988159 -98.498890 222 3055ft 279kts
04-Aug-20 08:30 34.028722 -98.534876 47 2501ft 188kts
04-Aug-20 08:31 34.001133 -98.498299 157 1028ft 149kts
04-Aug-20 08:32 33.987268 -98.491652 161 1027ft 0kts
04-Aug-20 08:33 33.987268 -98.491652 161 1027ft 0kts
04-Aug-20 08:34 33.987268 -98.491652 161 1027ft 0kts

Navigation Log

Ident Type
Flight plan parsing failed, navigation log unavailable